createdAt,value
2018-06-02T00:00:12.316Z,8.90
2018-06-02T00:02:40.958Z,8.43
2018-06-02T00:05:08.736Z,8.27
2018-06-02T00:07:36.499Z,7.23
2018-06-02T00:10:04.336Z,7.33
2018-06-02T00:12:32.097Z,7.67
2018-06-02T00:14:59.846Z,8.20
2018-06-02T00:17:27.609Z,7.97
2018-06-02T00:19:55.370Z,8.40
2018-06-02T00:22:23.277Z,7.90
2018-06-02T00:24:51.073Z,8.03
2018-06-02T00:27:18.908Z,7.30
2018-06-02T00:29:46.780Z,7.80
2018-06-02T00:32:14.642Z,7.43
2018-06-02T00:34:42.508Z,8.07
2018-06-02T00:37:10.304Z,7.43
2018-06-02T00:39:38.139Z,7.50
2018-06-02T00:42:05.934Z,8.23
2018-06-02T00:44:34.133Z,7.40
2018-06-02T00:47:03.324Z,8.00
2018-06-02T00:49:31.960Z,8.00
2018-06-02T00:51:59.828Z,6.83
2018-06-02T00:57:28.533Z,7.50
2018-06-02T00:59:57.348Z,7.30
2018-06-02T01:02:25.495Z,7.63
2018-06-02T01:04:53.771Z,7.30
2018-06-02T01:07:22.262Z,7.17
2018-06-02T01:09:50.116Z,6.97
2018-06-02T01:12:18.220Z,6.50
2018-06-02T01:14:46.668Z,7.10
2018-06-02T01:17:14.546Z,6.80
2018-06-02T01:19:42.405Z,6.37
2018-06-02T01:22:10.271Z,6.53
2018-06-02T01:24:38.138Z,6.23
2018-06-02T01:27:05.905Z,6.67
2018-06-02T01:29:33.692Z,5.83
2018-06-02T01:32:01.535Z,6.87
2018-06-02T01:34:29.324Z,6.73
2018-06-02T01:36:57.265Z,6.20
2018-06-02T01:39:25.137Z,6.70
2018-06-02T01:41:52.926Z,6.33
2018-06-02T01:44:20.866Z,5.67
2018-06-02T01:46:48.656Z,6.00
2018-06-02T01:49:16.568Z,6.40
2018-06-02T01:51:44.465Z,6.33
2018-06-02T01:54:12.639Z,5.57
2018-06-02T01:56:40.507Z,5.10
2018-06-02T01:59:08.373Z,6.50
2018-06-02T02:01:36.167Z,5.70
2018-06-02T02:04:04.106Z,5.20
2018-06-02T02:06:31.972Z,5.90
2018-06-02T02:08:59.845Z,6.00
2018-06-02T02:11:28.524Z,5.80
2018-06-02T02:13:56.316Z,5.30
2018-06-02T02:16:24.159Z,5.73
2018-06-02T02:18:52.025Z,5.60
2018-06-02T02:21:19.889Z,5.90
2018-06-02T02:23:47.681Z,5.80
2018-06-02T02:26:15.826Z,5.70
2018-06-02T02:28:43.729Z,4.50
2018-06-02T02:31:12.379Z,5.40
2018-06-02T02:33:40.172Z,5.53
2018-06-02T02:36:08.010Z,5.70
2018-06-02T02:38:35.876Z,5.40
2018-06-02T02:41:03.744Z,4.50
2018-06-02T02:43:31.610Z,4.90
2018-06-02T02:45:59.403Z,5.27
2018-06-02T02:48:27.164Z,4.87
2018-06-02T02:50:55.107Z,5.50
2018-06-02T02:53:22.974Z,5.10
2018-06-02T02:55:50.942Z,5.87
2018-06-02T02:58:18.809Z,4.90
2018-06-02T03:00:46.646Z,4.77
2018-06-02T03:03:14.543Z,4.60
2018-06-02T03:05:42.409Z,4.83
2018-06-02T03:08:10.378Z,4.87
2018-06-02T03:10:38.244Z,4.63
2018-06-02T03:13:06.111Z,4.30
2018-06-02T03:15:33.978Z,5.10
2018-06-02T03:18:01.948Z,4.20
2018-06-02T03:20:32.298Z,4.00
2018-06-02T03:23:03.562Z,4.43
2018-06-02T03:25:33.882Z,3.90
2018-06-02T03:28:02.453Z,4.40
2018-06-02T03:30:30.394Z,4.20
2018-06-02T03:32:58.184Z,4.27
2018-06-02T03:35:26.024Z,3.83
2018-06-02T03:37:53.816Z,5.70
2018-06-02T03:40:21.655Z,4.00
2018-06-02T03:42:49.521Z,4.23
2018-06-02T03:45:17.389Z,4.57
2018-06-02T03:47:45.181Z,5.00
2018-06-02T03:50:13.764Z,4.90
2018-06-02T03:52:42.421Z,4.73
2018-06-02T03:55:10.212Z,4.43
2018-06-02T03:57:38.157Z,4.73
2018-06-02T04:00:06.048Z,4.30
2018-06-02T04:02:33.893Z,4.40
2018-06-02T04:05:01.764Z,4.23
2018-06-02T04:07:29.620Z,3.80
2018-06-02T04:09:57.492Z,4.57
2018-06-02T04:12:25.354Z,3.50
2018-06-02T04:14:53.221Z,3.90
2018-06-02T04:17:20.987Z,3.13
2018-06-02T04:19:48.957Z,3.00
2018-06-02T04:22:16.926Z,3.50
2018-06-02T04:24:44.791Z,3.50
2018-06-02T04:27:12.657Z,3.00
2018-06-02T04:29:40.524Z,3.27
2018-06-02T04:32:08.319Z,3.00
2018-06-02T04:34:36.156Z,3.10
2018-06-02T04:37:04.022Z,3.10
2018-06-02T04:39:31.817Z,2.93
2018-06-02T04:41:59.757Z,3.63
2018-06-02T04:44:27.622Z,2.40
2018-06-02T04:46:55.487Z,2.23
2018-06-02T04:49:23.354Z,3.50
2018-06-02T04:51:51.145Z,2.97
2018-06-02T04:54:19.012Z,2.30
2018-06-02T04:56:46.779Z,2.60
2018-06-02T04:59:15.435Z,2.93
2018-06-02T05:01:43.301Z,2.60
2018-06-02T05:04:11.168Z,3.13
2018-06-02T05:06:38.999Z,2.63
2018-06-02T05:09:06.901Z,2.37
2018-06-02T05:11:34.870Z,2.27
2018-06-02T05:14:02.941Z,2.80
2018-06-02T05:16:30.733Z,1.87
2018-06-02T05:18:58.674Z,2.37
2018-06-02T05:21:26.541Z,2.47
2018-06-02T05:23:54.335Z,2.63
2018-06-02T05:26:22.172Z,3.07
2018-06-02T05:28:50.042Z,2.37
2018-06-02T05:31:17.906Z,2.93
2018-06-02T05:33:45.772Z,2.43
2018-06-02T05:36:13.564Z,2.50
2018-06-02T05:38:42.221Z,2.30
2018-06-02T05:41:10.088Z,2.67
2018-06-02T05:43:37.955Z,2.63
2018-06-02T05:46:05.823Z,2.60
2018-06-02T05:48:33.688Z,2.27
2018-06-02T05:51:01.512Z,2.80
2018-06-02T05:53:29.421Z,2.70
2018-06-02T05:55:57.288Z,2.73
2018-06-02T05:58:25.156Z,2.70
2018-06-02T06:00:53.021Z,2.50
2018-06-02T06:03:20.887Z,2.00
2018-06-02T06:05:48.754Z,2.33
2018-06-02T06:08:16.624Z,2.57
2018-06-02T06:10:44.412Z,2.70
2018-06-02T06:13:12.353Z,2.40
2018-06-02T06:15:40.220Z,2.23
2018-06-02T06:18:08.088Z,2.57
2018-06-02T06:20:35.954Z,2.67
2018-06-02T06:23:03.827Z,2.23
2018-06-02T06:25:31.612Z,1.90
2018-06-02T06:28:00.270Z,2.50
2018-06-02T06:30:28.137Z,2.30
2018-06-02T06:32:55.948Z,2.50
2018-06-02T06:35:23.973Z,2.20
2018-06-02T06:37:51.764Z,2.40
2018-06-02T06:40:19.604Z,2.37
2018-06-02T06:42:47.471Z,2.30
2018-06-02T06:45:15.337Z,2.03
2018-06-02T06:47:43.204Z,2.10
2018-06-02T06:50:11.176Z,2.40
2018-06-02T06:52:39.040Z,2.30
2018-06-02T06:55:06.906Z,2.53
2018-06-02T06:57:34.777Z,2.60
2018-06-02T07:00:02.643Z,2.20
2018-06-02T07:02:30.506Z,2.70
2018-06-02T07:04:58.300Z,2.03
2018-06-02T07:07:26.239Z,2.30
2018-06-02T07:09:54.106Z,2.37
2018-06-02T07:12:21.871Z,2.50
2018-06-02T07:14:49.736Z,2.20
2018-06-02T07:17:17.607Z,1.73
2018-06-02T07:19:45.469Z,2.03
2018-06-02T07:22:13.260Z,2.40
2018-06-02T07:24:41.024Z,2.63
2018-06-02T07:27:08.866Z,2.50
2018-06-02T07:29:36.731Z,2.33
2018-06-02T07:32:04.599Z,2.30
2018-06-02T07:34:32.465Z,2.30
2018-06-02T07:37:00.331Z,2.50
2018-06-02T07:39:28.199Z,3.17
2018-06-02T07:41:55.988Z,2.23
2018-06-02T07:44:23.924Z,3.33
2018-06-02T07:46:51.798Z,3.00
2018-06-02T07:49:19.590Z,1.90
2018-06-02T07:51:47.531Z,2.00
2018-06-02T07:54:15.398Z,2.03
2018-06-02T07:56:43.190Z,2.20
2018-06-02T07:59:11.233Z,2.70
2018-06-02T08:01:39.101Z,3.10
2018-06-02T08:04:06.966Z,2.63
2018-06-02T08:06:34.793Z,2.47
2018-06-02T08:09:02.700Z,2.50
2018-06-02T08:11:30.566Z,2.60
2018-06-02T08:13:58.357Z,2.60
2018-06-02T08:16:26.117Z,2.80
2018-06-02T08:18:53.875Z,2.60
2018-06-02T08:21:21.620Z,3.00
2018-06-02T08:23:49.368Z,2.70
2018-06-02T08:26:17.114Z,2.03
2018-06-02T08:28:44.892Z,2.50
2018-06-02T08:31:12.648Z,2.40
2018-06-02T08:33:40.452Z,2.40
2018-06-02T08:36:08.211Z,2.90
2018-06-02T08:38:35.966Z,2.47
2018-06-02T08:41:03.730Z,2.47
2018-06-02T08:43:31.487Z,2.23
2018-06-02T08:45:59.245Z,2.60
2018-06-02T08:48:27.002Z,2.37
2018-06-02T08:50:54.772Z,3.33
2018-06-02T08:53:22.529Z,2.60
2018-06-02T08:55:50.289Z,2.60
2018-06-02T08:58:18.493Z,2.50
2018-06-02T09:00:46.237Z,2.57
2018-06-02T09:03:13.991Z,3.23
2018-06-02T09:05:41.753Z,2.70
2018-06-02T09:08:09.517Z,3.40
2018-06-02T09:10:37.268Z,3.30
2018-06-02T09:13:05.791Z,3.27
2018-06-02T09:15:33.585Z,2.67
2018-06-02T09:18:01.346Z,3.17
2018-06-02T09:20:29.101Z,2.97
2018-06-02T09:22:56.877Z,2.87
2018-06-02T09:25:24.654Z,2.53
2018-06-02T09:27:53.309Z,2.70
2018-06-02T09:30:21.992Z,2.97
2018-06-02T09:32:49.856Z,2.60
2018-06-02T09:35:17.765Z,3.00
2018-06-02T09:37:46.409Z,2.83
2018-06-02T09:40:14.276Z,2.07
2018-06-02T09:42:42.246Z,2.40
2018-06-02T09:45:10.111Z,2.20
2018-06-02T09:47:37.906Z,2.27
2018-06-02T09:50:05.845Z,2.07
2018-06-02T09:52:33.794Z,2.40
2018-06-02T09:55:01.680Z,2.30
2018-06-02T09:57:29.446Z,2.00
2018-06-02T09:59:57.413Z,1.67
2018-06-02T10:02:25.280Z,1.97
2018-06-02T10:04:53.250Z,2.50
2018-06-02T10:07:21.321Z,2.10
2018-06-02T10:09:49.119Z,2.10
2018-06-02T10:12:16.981Z,2.00
2018-06-02T10:14:44.920Z,2.23
2018-06-02T10:17:12.684Z,2.00
2018-06-02T10:19:40.476Z,2.23
2018-06-02T10:22:08.346Z,2.57
2018-06-02T10:24:36.284Z,2.27
2018-06-02T10:27:04.151Z,2.23
2018-06-02T10:29:32.046Z,2.43
2018-06-02T10:31:59.985Z,2.33
2018-06-02T10:34:27.759Z,3.10
2018-06-02T10:36:55.617Z,2.60
2018-06-02T10:39:23.408Z,2.63
2018-06-02T10:41:51.350Z,2.53
2018-06-02T10:44:19.224Z,2.27
2018-06-02T10:46:47.186Z,2.60
2018-06-02T10:49:14.978Z,2.77
2018-06-02T10:51:42.844Z,2.67
2018-06-02T10:54:10.689Z,2.50
2018-06-02T10:56:38.550Z,2.47
2018-06-02T10:59:06.417Z,2.97
2018-06-02T11:01:34.320Z,2.80
2018-06-02T11:04:02.969Z,2.40
2018-06-02T11:06:30.762Z,2.50
2018-06-02T11:08:58.753Z,2.30
2018-06-02T11:11:27.389Z,2.50
2018-06-02T11:13:55.357Z,3.20
2018-06-02T11:16:23.224Z,2.80
2018-06-02T11:18:51.090Z,2.80
2018-06-02T11:21:18.960Z,3.57
2018-06-02T11:23:46.824Z,2.80
2018-06-02T11:26:14.690Z,2.50
2018-06-02T11:28:42.506Z,3.00
2018-06-02T11:31:11.141Z,2.90
2018-06-02T11:33:39.008Z,2.73
2018-06-02T11:36:06.875Z,3.17
2018-06-02T11:38:34.664Z,3.37
2018-06-02T11:41:03.250Z,2.40
2018-06-02T11:43:32.624Z,2.70
2018-06-02T11:46:00.491Z,2.70
2018-06-02T11:48:28.357Z,3.03
2018-06-02T11:50:56.151Z,2.80
2018-06-02T11:53:25.524Z,2.70
2018-06-02T11:55:53.390Z,2.50
2018-06-02T11:58:21.257Z,3.03
2018-06-02T12:00:49.125Z,3.47
2018-06-02T12:03:16.994Z,2.80
2018-06-02T12:05:44.786Z,3.13
2018-06-02T12:08:12.724Z,2.87
2018-06-02T12:10:40.590Z,2.60
2018-06-02T12:13:08.457Z,3.00
2018-06-02T12:15:36.426Z,2.90
2018-06-02T12:18:04.391Z,2.73
2018-06-02T12:20:32.296Z,3.07
2018-06-02T12:23:00.916Z,3.23
2018-06-02T12:25:28.815Z,2.50
2018-06-02T12:27:56.682Z,2.83
2018-06-02T12:30:24.650Z,2.87
2018-06-02T12:32:52.521Z,2.67
2018-06-02T12:35:20.382Z,2.60
2018-06-02T12:37:48.251Z,3.33
2018-06-02T12:40:16.135Z,3.20
2018-06-02T12:42:44.804Z,2.80
2018-06-02T12:45:12.671Z,3.07
2018-06-02T12:47:41.283Z,3.33
2018-06-02T12:50:09.938Z,2.53
2018-06-02T12:52:38.021Z,2.73
2018-06-02T12:55:05.853Z,2.57
2018-06-02T12:57:34.267Z,3.40
2018-06-02T13:00:02.014Z,3.20
2018-06-02T13:02:30.197Z,3.30
2018-06-02T13:04:58.649Z,3.53
2018-06-02T13:07:26.401Z,2.50
2018-06-02T13:09:54.213Z,3.47
2018-06-02T13:12:22.657Z,3.13
2018-06-02T13:14:50.436Z,3.80
2018-06-02T13:17:18.729Z,3.27
2018-06-02T13:19:46.920Z,3.37
2018-06-02T13:22:14.681Z,3.27
2018-06-02T13:24:42.437Z,3.30
2018-06-02T13:27:10.200Z,3.37
2018-06-02T13:29:38.091Z,3.00
2018-06-02T13:32:05.856Z,3.47
2018-06-02T13:34:34.378Z,3.87
2018-06-02T13:37:02.141Z,3.00
2018-06-02T13:39:29.896Z,3.43
2018-06-02T13:41:57.724Z,3.70
2018-06-02T13:44:26.025Z,3.77
2018-06-02T13:46:54.622Z,3.73
2018-06-02T13:49:22.454Z,3.93
2018-06-02T13:51:51.827Z,3.70
2018-06-02T13:54:19.693Z,4.00
2018-06-02T13:56:47.662Z,3.77
2018-06-02T13:59:15.453Z,3.70
2018-06-02T14:01:44.140Z,3.53
2018-06-02T14:04:12.797Z,3.93
2018-06-02T14:06:40.645Z,3.90
2018-06-02T14:09:08.409Z,3.53
2018-06-02T14:11:36.173Z,4.00
2018-06-02T14:14:04.161Z,3.97
2018-06-02T14:16:31.925Z,3.40
2018-06-02T14:18:59.792Z,3.47
2018-06-02T14:21:27.660Z,3.63
2018-06-02T14:23:55.524Z,4.07
2018-06-02T14:26:23.287Z,3.63
2018-06-02T14:28:51.736Z,3.67
2018-06-02T14:31:19.504Z,3.57
2018-06-02T14:33:47.273Z,4.67
2018-06-02T14:36:15.630Z,3.80
2018-06-02T14:38:44.157Z,3.73
2018-06-02T14:41:11.960Z,3.57
2018-06-02T14:43:40.690Z,4.00
2018-06-02T14:46:08.462Z,4.10
2018-06-02T14:48:36.217Z,3.30
2018-06-02T14:51:03.988Z,4.00
2018-06-02T14:53:31.796Z,4.37
2018-06-02T14:55:59.550Z,3.77
2018-06-02T14:58:27.325Z,3.90
2018-06-02T15:00:55.295Z,3.80
2018-06-02T15:03:23.235Z,3.60
2018-06-02T15:05:51.332Z,3.83
2018-06-02T15:08:19.085Z,4.20
2018-06-02T15:10:46.969Z,4.20
2018-06-02T15:13:15.592Z,4.53
2018-06-02T15:15:43.341Z,3.80
2018-06-02T15:18:11.866Z,4.00
2018-06-02T15:20:39.618Z,4.10
2018-06-02T15:23:07.881Z,3.67
2018-06-02T15:25:35.641Z,3.90
2018-06-02T15:28:03.622Z,4.10
2018-06-02T15:30:31.611Z,3.70
2018-06-02T15:32:59.477Z,3.63
2018-06-02T15:35:27.270Z,3.30
2018-06-02T15:37:55.106Z,3.80
2018-06-02T15:40:22.974Z,4.00
2018-06-02T15:42:50.737Z,4.17
2018-06-02T15:45:18.505Z,4.03
2018-06-02T15:47:46.260Z,4.10
2018-06-02T15:50:14.014Z,4.30
2018-06-02T15:52:41.774Z,3.50
2018-06-02T15:55:09.662Z,4.57
2018-06-02T15:57:37.664Z,4.30
2018-06-02T16:00:06.271Z,3.60
2018-06-02T16:02:34.035Z,3.33
2018-06-02T16:05:01.797Z,4.50
2018-06-02T16:07:29.554Z,4.10
2018-06-02T16:09:58.192Z,3.73
2018-06-02T16:12:26.061Z,4.30
2018-06-02T16:14:53.926Z,3.70
2018-06-02T16:17:21.717Z,4.10
2018-06-02T16:19:49.658Z,3.67
2018-06-02T16:22:17.525Z,3.83
2018-06-02T16:24:45.392Z,4.70
2018-06-02T16:27:13.184Z,4.47
2018-06-02T16:29:41.125Z,4.20
2018-06-02T16:32:09.829Z,4.30
2018-06-02T16:34:37.677Z,3.97
2018-06-02T16:37:05.546Z,4.50
2018-06-02T16:39:33.411Z,4.43
2018-06-02T16:42:01.282Z,4.37
2018-06-02T16:44:29.067Z,4.87
2018-06-02T16:46:56.883Z,5.30
2018-06-02T16:49:24.774Z,4.57
2018-06-02T16:51:52.597Z,5.40
2018-06-02T16:54:20.435Z,4.90
2018-06-02T16:56:48.196Z,5.10
2018-06-02T16:59:15.961Z,4.40
2018-06-02T17:01:43.902Z,4.30
2018-06-02T17:04:11.769Z,3.87
2018-06-02T17:06:39.638Z,4.73
2018-06-02T17:09:07.427Z,4.43
2018-06-02T17:11:35.196Z,4.57
2018-06-02T17:14:03.152Z,4.70
2018-06-02T17:16:31.004Z,4.73
2018-06-02T17:18:58.867Z,4.53
2018-06-02T17:21:26.734Z,6.30
2018-06-02T17:23:54.599Z,8.53
2018-06-02T17:26:22.469Z,6.40
2018-06-02T17:28:50.306Z,6.30
2018-06-02T17:31:18.209Z,9.20
2018-06-02T17:33:46.989Z,9.20
2018-06-02T17:36:14.856Z,7.33
2018-06-02T17:38:42.723Z,5.50
2018-06-02T17:41:10.543Z,5.20
2018-06-02T17:43:38.454Z,4.83
2018-06-02T17:46:06.215Z,5.13
2018-06-02T17:48:34.084Z,4.83
2018-06-02T17:51:01.951Z,4.70
2018-06-02T17:53:29.818Z,4.70
2018-06-02T17:55:57.685Z,4.50
2018-06-02T17:58:25.551Z,4.47
2018-06-02T18:00:53.418Z,4.40
2018-06-02T18:03:21.284Z,3.67
2018-06-02T18:05:49.151Z,4.27
2018-06-02T18:08:16.949Z,3.20
2018-06-02T18:10:45.601Z,3.13
2018-06-02T18:13:13.468Z,3.20
2018-06-02T18:15:41.335Z,3.07
2018-06-02T18:18:09.201Z,2.70
2018-06-02T18:20:37.068Z,3.20
2018-06-02T18:23:05.038Z,3.40
2018-06-02T18:25:33.006Z,2.70
2018-06-02T18:28:00.796Z,3.10
2018-06-02T18:30:28.636Z,2.37
2018-06-02T18:32:56.503Z,3.00
2018-06-02T18:35:24.248Z,2.77
2018-06-02T18:37:52.135Z,2.50
2018-06-02T18:40:20.000Z,5.80
2018-06-02T18:42:47.866Z,3.90
2018-06-02T18:45:15.733Z,3.70
2018-06-02T18:47:43.703Z,3.40
2018-06-02T18:50:11.569Z,2.53
2018-06-02T18:52:39.505Z,2.60
2018-06-02T18:55:07.405Z,2.63
2018-06-02T18:57:35.274Z,3.10
2018-06-02T19:00:03.165Z,2.43
2018-06-02T19:02:31.005Z,2.73
2018-06-02T19:04:58.797Z,2.67
2018-06-02T19:07:26.765Z,2.53
2018-06-02T19:09:55.348Z,3.10
2018-06-02T19:12:23.295Z,2.50
2018-06-02T19:14:51.084Z,2.73
2018-06-02T19:17:19.127Z,2.60
2018-06-02T19:19:46.884Z,2.90
2018-06-02T19:22:14.680Z,2.40
2018-06-02T19:24:42.520Z,3.10
2018-06-02T19:27:10.312Z,2.70
2018-06-02T19:29:38.180Z,2.60
2018-06-02T19:32:06.122Z,3.07
2018-06-02T19:34:33.912Z,2.60
2018-06-02T19:37:02.674Z,2.60
2018-06-02T19:39:30.540Z,2.30
2018-06-02T19:41:58.309Z,2.70
2018-06-02T19:44:26.171Z,2.30
2018-06-02T19:46:54.037Z,2.93
2018-06-02T19:49:21.829Z,2.20
2018-06-02T19:51:49.771Z,2.30
2018-06-02T19:54:17.637Z,2.20
2018-06-02T19:56:45.503Z,2.17
2018-06-02T19:59:13.370Z,2.27
2018-06-02T20:01:41.241Z,2.23
2018-06-02T20:04:09.028Z,1.93
2018-06-02T20:06:37.689Z,2.23
2018-06-02T20:09:05.659Z,2.40
2018-06-02T20:11:33.601Z,2.70
2018-06-02T20:14:01.493Z,1.57
2018-06-02T20:16:29.359Z,2.10
2018-06-02T20:18:57.225Z,2.10
2018-06-02T20:21:25.018Z,2.13
2018-06-02T20:23:53.675Z,1.97
2018-06-02T20:26:21.539Z,1.90
2018-06-02T20:28:49.411Z,2.10
2018-06-02T20:31:17.276Z,2.30
2018-06-02T20:33:45.069Z,2.00
2018-06-02T20:36:13.079Z,2.17
2018-06-02T20:38:41.694Z,1.90
2018-06-02T20:41:09.561Z,2.30
2018-06-02T20:43:37.430Z,2.00
2018-06-02T20:46:05.397Z,2.37
2018-06-02T20:48:33.263Z,1.60
2018-06-02T20:51:01.130Z,2.60
2018-06-02T20:53:29.025Z,2.20
2018-06-02T20:55:56.865Z,2.10
2018-06-02T20:58:24.730Z,2.40
2018-06-02T21:00:52.596Z,2.80
2018-06-02T21:03:20.463Z,2.33
2018-06-02T21:05:48.283Z,2.10
2018-06-02T21:08:16.912Z,2.30
2018-06-02T21:10:44.779Z,1.90
2018-06-02T21:13:12.646Z,2.33
2018-06-02T21:15:40.512Z,2.30
2018-06-02T21:18:08.303Z,2.30
2018-06-02T21:20:36.068Z,2.20
2018-06-02T21:23:03.832Z,2.20
2018-06-02T21:25:32.490Z,2.20
2018-06-02T21:28:00.357Z,2.37
2018-06-02T21:30:28.148Z,2.77
2018-06-02T21:32:56.091Z,2.10
2018-06-02T21:35:23.958Z,2.20
2018-06-02T21:37:51.748Z,2.30
2018-06-02T21:40:19.690Z,2.00
2018-06-02T21:42:47.557Z,2.70
2018-06-02T21:45:15.524Z,2.33
2018-06-02T21:47:43.392Z,2.37
2018-06-02T21:50:11.259Z,2.40
2018-06-02T21:52:39.243Z,2.00
2018-06-02T21:55:07.198Z,2.53
2018-06-02T21:57:35.068Z,2.20
2018-06-02T22:00:03.034Z,2.90
2018-06-02T22:02:31.002Z,2.20
2018-06-02T22:04:58.971Z,2.10
2018-06-02T22:07:26.869Z,2.57
2018-06-02T22:09:54.806Z,2.50
2018-06-02T22:12:22.775Z,2.30
2018-06-02T22:14:50.746Z,2.30
2018-06-02T22:17:18.591Z,2.67
2018-06-02T22:19:46.338Z,2.33
2018-06-02T22:22:14.093Z,2.13
2018-06-02T22:24:42.615Z,2.67
2018-06-02T22:27:10.412Z,3.13
2018-06-02T22:29:38.152Z,3.20
2018-06-02T22:32:06.027Z,2.30
2018-06-02T22:34:33.845Z,2.53
2018-06-02T22:37:01.603Z,2.30
2018-06-02T22:39:29.351Z,2.60
2018-06-02T22:41:57.864Z,2.47
2018-06-02T22:44:25.658Z,2.43
2018-06-02T22:46:53.413Z,3.00
2018-06-02T22:49:21.165Z,2.63
2018-06-02T22:51:58.652Z,2.20
2018-06-02T22:54:26.501Z,2.23
2018-06-02T22:56:54.321Z,1.90
2018-06-02T22:59:22.194Z,2.70
2018-06-02T23:01:49.993Z,2.40
2018-06-02T23:04:18.008Z,2.20
2018-06-02T23:06:45.978Z,2.50
2018-06-02T23:09:13.725Z,2.63
2018-06-02T23:11:41.486Z,2.10
2018-06-02T23:14:09.234Z,2.70
2018-06-02T23:16:36.984Z,2.43
2018-06-02T23:19:05.497Z,2.50
2018-06-02T23:21:33.249Z,2.10
2018-06-02T23:24:00.993Z,2.03
2018-06-02T23:26:29.514Z,2.30
2018-06-02T23:28:57.256Z,2.60
2018-06-02T23:31:25.002Z,2.83
2018-06-02T23:33:53.535Z,2.23
2018-06-02T23:36:21.291Z,2.60
2018-06-02T23:38:49.055Z,2.20
2018-06-02T23:41:16.805Z,2.20
2018-06-02T23:43:44.576Z,2.23
2018-06-02T23:46:12.343Z,2.67
2018-06-02T23:48:40.089Z,2.40
2018-06-02T23:51:07.841Z,2.97
2018-06-02T23:53:35.596Z,2.10
2018-06-02T23:56:04.116Z,2.77
2018-06-02T23:58:31.867Z,3.20
